createdAt,value
2024-03-06T00:02:21.279Z,101477.61
2024-03-06T00:04:48.139Z,101476.91
2024-03-06T00:07:15.083Z,101477.09
2024-03-06T00:09:43.330Z,101478.65
2024-03-06T00:12:10.084Z,101476.05
2024-03-06T00:14:36.954Z,101477.30
2024-03-06T00:17:07.476Z,101475.20
2024-03-06T00:19:34.279Z,101474.17
2024-03-06T00:22:01.813Z,101475.39
2024-03-06T00:24:28.915Z,101481.30
2024-03-06T00:26:55.608Z,101481.64
2024-03-06T00:29:22.258Z,101486.14
2024-03-06T00:31:49.103Z,101482.97
2024-03-06T00:34:16.434Z,101482.60
2024-03-06T00:36:44.117Z,101483.45
2024-03-06T00:39:11.389Z,101482.58
2024-03-06T00:41:38.435Z,101479.61
2024-03-06T00:44:06.365Z,101480.68
2024-03-06T00:46:33.215Z,101481.05
2024-03-06T00:49:00.029Z,101481.08
2024-03-06T00:51:36.792Z,101484.39
2024-03-06T00:54:08.744Z,101482.48
2024-03-06T00:56:39.612Z,101483.01
2024-03-06T00:59:06.526Z,101482.17
2024-03-06T01:01:33.276Z,101485.14
2024-03-06T01:04:00.152Z,101483.59
2024-03-06T01:06:27.167Z,101479.95
2024-03-06T01:08:55.244Z,101482.91
2024-03-06T01:11:22.122Z,101485.17
2024-03-06T01:13:49.554Z,101485.88
2024-03-06T01:16:16.327Z,101484.64
2024-03-06T01:18:43.021Z,101483.42
2024-03-06T01:21:09.913Z,101482.22
2024-03-06T01:23:36.596Z,101482.91
2024-03-06T01:26:03.394Z,101485.85
2024-03-06T01:28:30.362Z,101486.38
2024-03-06T01:30:59.283Z,101488.46
2024-03-06T01:33:26.666Z,101490.21
2024-03-06T01:35:53.438Z,101494.34
2024-03-06T01:38:20.245Z,101495.89
2024-03-06T01:40:47.195Z,101495.36
2024-03-06T01:43:20.985Z,101496.89
2024-03-06T01:45:49.522Z,101495.48
2024-03-06T01:48:21.872Z,101495.65
2024-03-06T01:50:48.599Z,101498.43
2024-03-06T01:53:15.503Z,101502.09
2024-03-06T01:55:42.296Z,101503.13
2024-03-06T01:58:11.008Z,101508.14
2024-03-06T02:00:37.747Z,101510.91
2024-03-06T02:03:04.864Z,101510.20
2024-03-06T02:05:31.729Z,101510.87
2024-03-06T02:07:59.855Z,101512.91
2024-03-06T02:10:27.816Z,101513.41
2024-03-06T02:12:55.012Z,101511.67
2024-03-06T02:15:21.814Z,101511.98
2024-03-06T02:17:48.722Z,101511.25
2024-03-06T02:20:16.565Z,101512.07
2024-03-06T02:22:43.609Z,101513.91
2024-03-06T02:25:10.297Z,101516.33
2024-03-06T02:27:38.242Z,101513.00
2024-03-06T02:30:06.746Z,101514.39
2024-03-06T02:32:33.829Z,101511.09
2024-03-06T02:35:03.805Z,101515.23
2024-03-06T02:37:30.770Z,101514.84
2024-03-06T02:39:57.523Z,101510.16
2024-03-06T02:42:24.285Z,101513.31
2024-03-06T02:44:53.301Z,101512.64
2024-03-06T02:47:20.182Z,101514.02
2024-03-06T02:49:46.883Z,101512.27
2024-03-06T02:52:13.698Z,101509.29
2024-03-06T02:54:43.182Z,101511.90
2024-03-06T02:57:09.848Z,101517.30
2024-03-06T02:59:38.230Z,101514.50
2024-03-06T03:02:05.105Z,101512.94
2024-03-06T03:04:32.357Z,101511.89
2024-03-06T03:06:59.173Z,101512.23
2024-03-06T03:09:25.930Z,101513.07
2024-03-06T03:11:52.855Z,101514.80
2024-03-06T03:14:19.704Z,101516.54
2024-03-06T03:16:46.455Z,101515.48
2024-03-06T03:19:13.138Z,101512.66
2024-03-06T03:21:44.023Z,101513.52
2024-03-06T03:24:11.745Z,101511.92
2024-03-06T03:26:38.385Z,101513.98
2024-03-06T03:29:05.723Z,101515.68
2024-03-06T03:31:33.636Z,101514.94
2024-03-06T03:34:00.285Z,101523.40
2024-03-06T03:36:27.092Z,101522.68
2024-03-06T03:38:54.647Z,101522.86
2024-03-06T03:41:21.333Z,101525.80
2024-03-06T03:43:48.028Z,101528.95
2024-03-06T03:46:14.797Z,101536.32
2024-03-06T03:48:41.689Z,101534.84
2024-03-06T03:51:08.959Z,101536.63
2024-03-06T03:53:35.902Z,101536.35
2024-03-06T03:56:03.835Z,101533.48
2024-03-06T03:58:30.855Z,101534.42
2024-03-06T04:00:59.678Z,101531.02
2024-03-06T04:03:26.394Z,101531.46
2024-03-06T04:05:53.061Z,101533.77
2024-03-06T04:08:19.837Z,101538.52
2024-03-06T04:10:46.837Z,101539.45
2024-03-06T04:13:17.223Z,101538.28
2024-03-06T04:15:44.138Z,101540.94
2024-03-06T04:18:10.929Z,101544.11
2024-03-06T04:20:37.825Z,101546.77
2024-03-06T04:23:04.824Z,101545.63
2024-03-06T04:25:32.955Z,101548.26
2024-03-06T04:27:59.643Z,101551.58
2024-03-06T04:30:26.314Z,101555.60
2024-03-06T04:32:53.213Z,101552.48
2024-03-06T04:35:20.311Z,101556.02
2024-03-06T04:37:48.021Z,101555.48
2024-03-06T04:40:18.345Z,101553.91
2024-03-06T04:42:47.999Z,101554.79
2024-03-06T04:45:18.147Z,101555.52
2024-03-06T04:47:44.904Z,101559.17
2024-03-06T04:50:13.433Z,101555.38
2024-03-06T04:52:40.749Z,101557.31
2024-03-06T04:55:08.116Z,101559.92
2024-03-06T04:57:35.195Z,101561.14
2024-03-06T05:00:06.300Z,101565.32
2024-03-06T06:00:31.109Z,101589.62
2024-03-06T06:02:57.915Z,101591.88
2024-03-06T06:05:24.857Z,101591.20
2024-03-06T06:07:51.841Z,101591.40
2024-03-06T06:10:21.582Z,101593.50
2024-03-06T06:12:49.954Z,101594.21
2024-03-06T06:15:16.862Z,101597.70
2024-03-06T06:17:44.886Z,101596.66
2024-03-06T06:20:15.285Z,101594.75
2024-03-06T06:22:45.104Z,101595.41
2024-03-06T06:25:12.793Z,101598.16
2024-03-06T06:27:39.991Z,101596.25
2024-03-06T06:30:11.866Z,101596.08
2024-03-06T06:32:40.741Z,101596.06
2024-03-06T06:35:08.490Z,101597.98
2024-03-06T06:37:35.819Z,101594.84
2024-03-06T06:40:06.851Z,101594.64
2024-03-06T06:42:34.675Z,101597.88
2024-03-06T06:45:01.399Z,101600.11
2024-03-06T06:47:28.548Z,101599.55
2024-03-06T06:49:56.389Z,101598.98
2024-03-06T06:52:23.330Z,101598.42
2024-03-06T06:54:51.797Z,101600.30
2024-03-06T06:57:20.476Z,101594.98
2024-03-06T06:59:47.400Z,101598.25
2024-03-06T07:02:15.055Z,101602.19
2024-03-06T07:04:41.844Z,101600.92
2024-03-06T07:07:08.658Z,101599.01
2024-03-06T07:09:35.735Z,101601.36
2024-03-06T07:12:03.596Z,101602.31
2024-03-06T07:14:31.187Z,101605.89
2024-03-06T07:16:58.244Z,101605.63
2024-03-06T07:19:25.286Z,101607.84
2024-03-06T07:21:54.081Z,101610.40
2024-03-06T07:24:20.871Z,101614.17
2024-03-06T07:26:47.947Z,101612.52
2024-03-06T07:29:15.330Z,101617.36
2024-03-06T07:31:42.217Z,101619.42
2024-03-06T07:34:09.395Z,101623.55
2024-03-06T07:36:36.238Z,101621.06
2024-03-06T07:39:03.901Z,101619.96
2024-03-06T07:41:33.579Z,101623.70
2024-03-06T07:44:00.848Z,101621.16
2024-03-06T07:46:28.063Z,101621.58
2024-03-06T07:48:55.563Z,101619.56
2024-03-06T07:51:22.544Z,101618.09
2024-03-06T07:53:51.111Z,101619.77
2024-03-06T07:56:18.054Z,101618.84
2024-03-06T07:58:45.127Z,101620.75
2024-03-06T08:01:11.938Z,101623.91
2024-03-06T08:03:40.694Z,101628.14
2024-03-06T08:06:07.488Z,101629.68
2024-03-06T08:08:34.964Z,101629.50
2024-03-06T08:11:02.432Z,101629.89
2024-03-06T08:13:29.750Z,101635.52
2024-03-06T08:15:57.455Z,101631.05
2024-03-06T08:18:24.339Z,101630.61
2024-03-06T08:20:51.293Z,101631.34
2024-03-06T08:23:18.386Z,101630.66
2024-03-06T08:25:45.669Z,101634.68
2024-03-06T08:28:12.725Z,101634.84
2024-03-06T08:30:39.989Z,101635.36
2024-03-06T08:33:07.112Z,101637.39
2024-03-06T08:35:34.314Z,101640.84
2024-03-06T08:38:01.240Z,101637.67
2024-03-06T08:40:28.768Z,101641.14
2024-03-06T08:42:55.671Z,101641.45
2024-03-06T08:45:23.743Z,101641.09
2024-03-06T08:47:51.181Z,101636.69
2024-03-06T08:50:18.513Z,101638.19
2024-03-06T08:52:45.682Z,101640.73
2024-03-06T08:55:12.694Z,101641.16
2024-03-06T08:57:39.601Z,101641.07
2024-03-06T09:00:11.010Z,101644.32
2024-03-06T09:02:42.157Z,101646.70
2024-03-06T09:05:10.966Z,101648.23
2024-03-06T09:07:38.809Z,101649.55
2024-03-06T09:10:08.770Z,101652.43
2024-03-06T09:12:36.152Z,101650.27
2024-03-06T09:15:03.402Z,101652.63
2024-03-06T09:17:30.917Z,101653.77
2024-03-06T09:20:07.982Z,101656.52
2024-03-06T09:22:40.279Z,101662.60
2024-03-06T09:25:07.859Z,101667.06
2024-03-06T09:27:35.297Z,101666.98
2024-03-06T09:30:03.482Z,101674.73
2024-03-06T09:32:31.140Z,101682.02
2024-03-06T09:34:59.218Z,101682.73
2024-03-06T09:37:26.100Z,101684.00
2024-03-06T09:39:52.972Z,101685.31
2024-03-06T09:42:19.855Z,101685.16
2024-03-06T09:44:48.484Z,101685.20
2024-03-06T09:47:16.243Z,101687.80
2024-03-06T09:49:44.073Z,101687.79
2024-03-06T09:52:11.177Z,101691.59
2024-03-06T09:54:39.727Z,101693.50
2024-03-06T09:57:06.593Z,101695.14
2024-03-06T09:59:33.650Z,101700.18
2024-03-06T10:02:03.187Z,101705.55
2024-03-06T10:04:33.243Z,101705.13
2024-03-06T10:07:00.419Z,101701.94
2024-03-06T10:09:27.593Z,101704.77
2024-03-06T10:11:57.721Z,101710.55
2024-03-06T10:14:24.831Z,101715.11
2024-03-06T10:17:01.761Z,101714.45
2024-03-06T10:19:29.765Z,101714.38
2024-03-06T10:21:57.627Z,101718.81
2024-03-06T10:24:28.432Z,101718.86
2024-03-06T10:26:58.486Z,101719.07
2024-03-06T10:29:26.579Z,101715.23
2024-03-06T10:31:58.006Z,101715.05
2024-03-06T10:34:25.537Z,101714.46
2024-03-06T10:36:56.364Z,101713.77
2024-03-06T10:39:24.729Z,101713.46
2024-03-06T10:41:58.305Z,101714.34
2024-03-06T10:44:26.293Z,101712.38
2024-03-06T10:47:00.648Z,101712.67
2024-03-06T10:49:31.065Z,101709.14
2024-03-06T10:51:58.930Z,101716.11
2024-03-06T10:54:27.736Z,101716.48
2024-03-06T10:56:55.320Z,101717.70
2024-03-06T10:59:22.250Z,101718.55
2024-03-06T11:01:50.303Z,101717.19
2024-03-06T11:04:17.260Z,101716.02
2024-03-06T11:06:45.311Z,101714.82
2024-03-06T11:09:15.572Z,101711.67
2024-03-06T11:11:54.856Z,101711.13
2024-03-06T11:14:22.219Z,101711.42
2024-03-06T11:17:11.393Z,101713.31
2024-03-06T11:20:00.479Z,101708.80
2024-03-06T11:22:58.660Z,101706.92
2024-03-06T11:25:48.020Z,101702.38
2024-03-06T11:28:19.003Z,101698.66
2024-03-06T11:30:47.529Z,101694.07
2024-03-06T11:33:17.523Z,101694.73
2024-03-06T11:36:13.314Z,101691.74
2024-03-06T11:38:40.590Z,101688.95
2024-03-06T11:41:09.864Z,101688.64
2024-03-06T11:43:43.367Z,101689.54
2024-03-06T11:46:10.860Z,101689.02
2024-03-06T11:48:37.999Z,101687.20
2024-03-06T11:51:07.565Z,101686.62
2024-03-06T11:53:35.130Z,101684.06
2024-03-06T11:56:02.056Z,101682.29
2024-03-06T11:58:29.548Z,101680.52
2024-03-06T12:00:56.442Z,101675.58
2024-03-06T12:03:25.611Z,101679.04
2024-03-06T12:05:53.160Z,101676.15
2024-03-06T12:08:19.973Z,101675.19
2024-03-06T12:10:48.195Z,101667.81
2024-03-06T12:13:15.042Z,101668.77
2024-03-06T12:15:45.544Z,101669.67
2024-03-06T12:18:12.555Z,101667.31
2024-03-06T12:20:46.109Z,101667.89
2024-03-06T12:23:23.555Z,101667.61
2024-03-06T12:25:58.580Z,101669.68
2024-03-06T12:28:32.746Z,101665.16
2024-03-06T12:31:02.305Z,101666.52
2024-03-06T12:33:29.377Z,101666.11
2024-03-06T12:36:07.088Z,101667.77
2024-03-06T12:38:34.161Z,101665.40
2024-03-06T12:41:01.126Z,101662.02
2024-03-06T12:43:29.374Z,101663.90
2024-03-06T12:45:57.709Z,101660.04
2024-03-06T12:48:29.008Z,101661.64
2024-03-06T12:50:56.150Z,101662.71
2024-03-06T12:53:23.301Z,101663.95
2024-03-06T12:55:50.380Z,101663.43
2024-03-06T12:58:18.113Z,101659.76
2024-03-06T13:00:45.003Z,101655.05
2024-03-06T13:03:11.841Z,101652.08
2024-03-06T13:05:38.974Z,101647.23
2024-03-06T13:08:06.168Z,101647.98
2024-03-06T13:10:33.284Z,101652.45
2024-03-06T13:13:00.136Z,101648.02
2024-03-06T13:15:26.970Z,101649.98
2024-03-06T13:17:53.975Z,101648.27
2024-03-06T13:20:20.917Z,101636.71
2024-03-06T13:22:47.900Z,101635.77
2024-03-06T13:25:14.766Z,101633.47
2024-03-06T13:27:41.669Z,101635.08
2024-03-06T13:30:08.833Z,101636.36
2024-03-06T13:32:36.580Z,101638.73
2024-03-06T13:35:04.231Z,101637.25
2024-03-06T13:37:31.559Z,101639.11
2024-03-06T13:40:03.471Z,101643.57
2024-03-06T13:42:30.576Z,101644.58
2024-03-06T13:44:57.461Z,101648.74
2024-03-06T13:47:24.952Z,101648.20
2024-03-06T13:49:51.913Z,101653.29
2024-03-06T13:52:20.745Z,101656.61
2024-03-06T13:54:50.373Z,101660.30
2024-03-06T13:57:17.213Z,101660.02
2024-03-06T13:59:44.262Z,101657.94
2024-03-06T14:02:11.255Z,101661.59
2024-03-06T14:04:38.184Z,101658.83
2024-03-06T14:07:05.245Z,101659.17
2024-03-06T14:09:32.204Z,101655.25
2024-03-06T14:11:59.517Z,101655.98
2024-03-06T14:14:26.701Z,101654.75
2024-03-06T14:16:53.823Z,101658.40
2024-03-06T14:19:22.141Z,101660.71
2024-03-06T14:21:49.075Z,101661.35
2024-03-06T14:24:16.083Z,101662.88
2024-03-06T14:26:43.044Z,101664.35
2024-03-06T14:29:10.145Z,101664.89
2024-03-06T14:31:37.098Z,101662.79
2024-03-06T14:34:06.493Z,101662.09
2024-03-06T14:36:35.470Z,101665.77
2024-03-06T14:39:02.440Z,101662.66
2024-03-06T14:41:30.148Z,101667.04
2024-03-06T14:43:56.948Z,101668.31
2024-03-06T14:46:23.766Z,101665.92
2024-03-06T14:48:51.557Z,101666.13
2024-03-06T14:51:18.327Z,101671.34
2024-03-06T14:53:45.431Z,101672.41
2024-03-06T14:56:12.451Z,101673.66
2024-03-06T14:58:40.083Z,101675.63
2024-03-06T15:01:07.083Z,101678.61
2024-03-06T15:03:34.019Z,101676.88
2024-03-06T15:06:01.142Z,101673.92
2024-03-06T15:08:28.393Z,101675.02
2024-03-06T15:10:55.436Z,101675.60
2024-03-06T15:13:23.432Z,101677.06
2024-03-06T15:15:51.111Z,101676.53
2024-03-06T15:18:18.384Z,101677.59
2024-03-06T15:20:46.404Z,101678.86
2024-03-06T15:23:13.609Z,101678.95
2024-03-06T15:25:40.557Z,101680.63
2024-03-06T15:28:07.373Z,101680.05
2024-03-06T15:30:35.983Z,101681.59
2024-03-06T15:33:04.127Z,101681.11
2024-03-06T15:35:31.402Z,101683.98
2024-03-06T15:37:59.685Z,101684.54
2024-03-06T15:40:26.540Z,101685.48
2024-03-06T15:42:56.294Z,101691.61
2024-03-06T15:45:24.347Z,101694.41
2024-03-06T15:47:51.276Z,101697.91
2024-03-06T15:50:18.359Z,101700.71
2024-03-06T15:52:45.275Z,101702.16
2024-03-06T15:55:12.161Z,101707.61
2024-03-06T15:57:39.409Z,101708.88
2024-03-06T16:00:08.604Z,101710.34
2024-03-06T16:02:39.239Z,101714.24
2024-03-06T16:05:08.911Z,101712.92
2024-03-06T16:07:39.621Z,101715.43
2024-03-06T16:10:11.431Z,101717.10
2024-03-06T16:12:38.258Z,101717.04
2024-03-06T16:15:07.171Z,101724.44
2024-03-06T16:17:35.396Z,101727.79
2024-03-06T16:20:05.489Z,101729.26
2024-03-06T16:22:33.181Z,101735.02
2024-03-06T16:24:59.984Z,101737.17
2024-03-06T16:27:26.951Z,101736.20
2024-03-06T16:29:55.496Z,101740.80
2024-03-06T16:32:22.354Z,101741.38
2024-03-06T16:34:51.629Z,101740.54
2024-03-06T16:37:18.713Z,101746.23
2024-03-06T16:39:48.280Z,101749.95
2024-03-06T16:42:16.432Z,101749.14
2024-03-06T16:44:43.313Z,101753.73
2024-03-06T16:47:10.256Z,101756.25
2024-03-06T16:49:37.406Z,101755.47
2024-03-06T16:52:04.801Z,101761.45
2024-03-06T16:54:32.632Z,101761.52
2024-03-06T16:56:59.878Z,101765.23
2024-03-06T16:59:30.274Z,101768.25
2024-03-06T17:01:57.618Z,101766.02
2024-03-06T17:04:24.780Z,101769.39
2024-03-06T17:06:51.735Z,101771.88
2024-03-06T17:09:18.608Z,101773.00
2024-03-06T17:11:45.914Z,101773.62
2024-03-06T17:14:12.810Z,101774.95
2024-03-06T17:16:39.701Z,101772.67
2024-03-06T17:19:06.793Z,101775.77
2024-03-06T17:21:37.077Z,101780.32
2024-03-06T17:24:06.872Z,101781.30
2024-03-06T17:26:38.142Z,101783.23
2024-03-06T17:29:05.815Z,101790.05
2024-03-06T17:31:35.629Z,101790.27
2024-03-06T17:34:02.905Z,101792.38
2024-03-06T17:36:31.817Z,101794.67
2024-03-06T17:39:00.723Z,101790.87
2024-03-06T17:41:27.967Z,101793.34
2024-03-06T17:43:55.003Z,101792.13
2024-03-06T17:46:21.833Z,101790.73
2024-03-06T17:48:50.283Z,101790.41
2024-03-06T17:51:19.581Z,101792.88
2024-03-06T17:53:46.648Z,101792.03
2024-03-06T17:56:14.311Z,101797.27
2024-03-06T17:58:41.632Z,101794.86
2024-03-06T18:01:08.645Z,101794.02
2024-03-06T18:03:35.700Z,101798.39
2024-03-06T18:06:02.737Z,101796.49
2024-03-06T18:08:29.942Z,101798.24
2024-03-06T18:10:56.838Z,101797.56
2024-03-06T18:13:23.700Z,101796.36
2024-03-06T18:15:53.321Z,101799.69
2024-03-06T18:18:20.590Z,101803.68
2024-03-06T18:20:47.438Z,101800.39
2024-03-06T18:23:14.356Z,101804.21
2024-03-06T18:25:41.224Z,101805.61
2024-03-06T18:28:09.023Z,101806.16
2024-03-06T18:30:35.996Z,101809.48
2024-03-06T18:33:03.141Z,101810.89
2024-03-06T18:35:30.173Z,101811.77
2024-03-06T18:37:59.967Z,101815.61
2024-03-06T18:40:28.511Z,101820.34
2024-03-06T18:42:56.880Z,101821.23
2024-03-06T18:45:23.763Z,101821.77
2024-03-06T18:47:50.608Z,101825.77
2024-03-06T18:50:20.830Z,101826.66
2024-03-06T18:52:47.774Z,101827.38
2024-03-06T18:55:15.161Z,101831.77
2024-03-06T18:57:42.190Z,101829.87
2024-03-06T19:00:12.134Z,101835.10
2024-03-06T19:02:39.846Z,101835.45
2024-03-06T19:05:07.136Z,101833.89
2024-03-06T19:07:34.348Z,101840.70
2024-03-06T19:10:05.902Z,101846.83
2024-03-06T19:12:32.929Z,101846.99
2024-03-06T19:14:59.907Z,101850.83
2024-03-06T19:17:27.766Z,101851.54
2024-03-06T19:19:56.706Z,101855.20
2024-03-06T19:22:23.458Z,101860.63
2024-03-06T19:24:50.634Z,101861.16
2024-03-06T19:27:17.680Z,101863.65
2024-03-06T19:29:44.758Z,101865.91
2024-03-06T19:32:12.397Z,101866.83
2024-03-06T19:34:39.336Z,101869.13
2024-03-06T19:37:07.034Z,101872.98
2024-03-06T19:39:34.594Z,101872.30
2024-03-06T19:42:05.887Z,101877.35
2024-03-06T19:44:32.919Z,101878.25
2024-03-06T19:46:59.847Z,101878.27
2024-03-06T19:49:28.073Z,101885.61
2024-03-06T19:51:54.877Z,101884.95
2024-03-06T19:54:22.123Z,101887.76
2024-03-06T19:56:50.540Z,101889.52
2024-03-06T19:59:17.399Z,101890.77
2024-03-06T20:01:44.372Z,101889.41
2024-03-06T20:04:11.256Z,101894.12
2024-03-06T20:06:38.225Z,101894.46
2024-03-06T20:09:05.925Z,101894.83
2024-03-06T20:11:33.000Z,101896.92
2024-03-06T20:14:00.285Z,101896.41
2024-03-06T20:16:27.527Z,101899.21
2024-03-06T20:18:56.385Z,101900.60
2024-03-06T20:21:23.880Z,101900.77
2024-03-06T20:23:51.329Z,101902.01
2024-03-06T20:26:19.484Z,101900.98
2024-03-06T20:28:49.112Z,101899.09
2024-03-06T20:31:18.246Z,101902.23
2024-03-06T20:33:45.985Z,101903.81
2024-03-06T20:36:13.226Z,101904.88
2024-03-06T20:38:40.147Z,101904.56
2024-03-06T20:41:08.568Z,101904.77
2024-03-06T20:43:39.702Z,101905.33
2024-03-06T20:46:07.111Z,101907.97
2024-03-06T20:48:34.879Z,101914.42
2024-03-06T20:51:03.235Z,101914.31
2024-03-06T20:53:30.993Z,101912.73
2024-03-06T20:55:58.628Z,101910.14
2024-03-06T20:58:25.720Z,101909.64
2024-03-06T21:00:52.748Z,101908.96
2024-03-06T21:03:19.856Z,101904.65
2024-03-06T21:05:47.215Z,101904.67
2024-03-06T21:08:14.569Z,101907.15
2024-03-06T21:10:42.155Z,101912.73
2024-03-06T21:13:09.079Z,101914.81
2024-03-06T21:15:36.205Z,101903.20
2024-03-06T21:18:04.641Z,101912.27
2024-03-06T21:20:31.861Z,101912.30
2024-03-06T21:23:00.529Z,101913.88
2024-03-06T21:25:27.372Z,101914.61
2024-03-06T21:27:55.172Z,101917.60
2024-03-06T21:30:22.821Z,101918.84
2024-03-06T21:32:49.815Z,101917.47
2024-03-06T21:35:16.819Z,101922.00
2024-03-06T21:37:43.641Z,101924.11
2024-03-06T21:40:13.791Z,101928.67
2024-03-06T21:42:42.433Z,101933.38
2024-03-06T21:45:09.496Z,101937.55
2024-03-06T21:47:36.583Z,101939.30
2024-03-06T21:50:06.107Z,101936.88
2024-03-06T21:52:34.203Z,101936.91
2024-03-06T21:55:01.713Z,101932.77
2024-03-06T21:57:29.050Z,101933.83
2024-03-06T21:59:56.550Z,101934.00
2024-03-06T22:02:23.569Z,101936.12
2024-03-06T22:04:50.303Z,101940.33
2024-03-06T22:07:17.025Z,101944.33
2024-03-06T22:09:43.865Z,101940.88
2024-03-06T22:12:11.784Z,101940.89
2024-03-06T22:14:42.832Z,101939.16
2024-03-06T22:17:09.598Z,101939.17
2024-03-06T22:19:36.311Z,101938.14
2024-03-06T22:22:04.170Z,101940.41
2024-03-06T22:24:31.958Z,101940.92
2024-03-06T22:26:59.384Z,101942.33
2024-03-06T22:29:28.146Z,101946.16
2024-03-06T22:31:54.960Z,101942.17
2024-03-06T22:34:21.682Z,101946.52
2024-03-06T22:36:48.437Z,101951.73
2024-03-06T22:39:15.217Z,101952.95
2024-03-06T22:41:41.922Z,101954.34
2024-03-06T22:44:08.935Z,101956.78
2024-03-06T22:46:46.957Z,101958.88
2024-03-06T22:49:17.761Z,101963.71
2024-03-06T22:51:44.574Z,101966.16
2024-03-06T22:54:11.328Z,101961.98
2024-03-06T22:56:39.203Z,101967.54
2024-03-06T22:59:06.016Z,101975.31
2024-03-06T23:01:34.261Z,101975.66
2024-03-06T23:04:01.064Z,101979.98
2024-03-06T23:06:27.875Z,101979.29
2024-03-06T23:08:54.570Z,101982.07
2024-03-06T23:11:21.534Z,101981.02
2024-03-06T23:13:48.319Z,101981.71
2024-03-06T23:16:15.006Z,101980.50
2024-03-06T23:18:41.791Z,101977.55
2024-03-06T23:21:08.496Z,101978.41
2024-03-06T23:23:35.179Z,101981.71
2024-03-06T23:26:01.969Z,101984.48
2024-03-06T23:28:29.185Z,101987.25
2024-03-06T23:30:55.805Z,101990.37
2024-03-06T23:33:23.306Z,101987.95
2024-03-06T23:35:50.245Z,101988.29
2024-03-06T23:38:17.444Z,101986.20
2024-03-06T23:40:44.197Z,101986.04
2024-03-06T23:43:10.838Z,101991.57
2024-03-06T23:45:37.481Z,101988.80
2024-03-06T23:48:04.746Z,101988.95
2024-03-06T23:50:31.894Z,101993.46
2024-03-06T23:52:59.029Z,101989.30
2024-03-06T23:55:25.867Z,101985.83
2024-03-06T23:57:52.622Z,101982.02
